createdAt,value
2022-11-10T00:00:44.138Z,22.25
2022-11-10T00:03:30.431Z,24.25
2022-11-10T00:06:18.298Z,20.75
2022-11-10T00:09:04.858Z,14.00
2022-11-10T00:11:51.748Z,20.50
2022-11-10T00:15:10.478Z,21.75
2022-11-10T00:17:57.076Z,15.50
2022-11-10T00:20:43.551Z,24.50
2022-11-10T00:23:31.623Z,22.75
2022-11-10T00:26:20.116Z,27.00
2022-11-10T00:29:06.540Z,20.50
2022-11-10T00:31:52.890Z,22.25
2022-11-10T00:34:39.209Z,18.75
2022-11-10T00:37:25.551Z,22.00
2022-11-10T00:40:13.740Z,22.75
2022-11-10T00:43:00.191Z,21.00
2022-11-10T00:45:48.059Z,26.75
2022-11-10T00:48:34.452Z,18.25
2022-11-10T00:51:22.664Z,24.00
2022-11-10T00:54:09.372Z,20.00
2022-11-10T00:56:57.165Z,25.00
2022-11-10T00:59:43.638Z,22.25
2022-11-10T01:02:30.758Z,24.00
2022-11-10T01:05:17.050Z,21.00
2022-11-10T01:08:03.715Z,24.50
2022-11-10T01:10:50.572Z,27.50
2022-11-10T01:13:38.327Z,23.25
2022-11-10T01:16:26.264Z,21.50
2022-11-10T01:19:12.540Z,28.75
2022-11-10T01:22:01.163Z,23.75
2022-11-10T01:24:47.664Z,23.25
2022-11-10T01:27:34.069Z,25.25
2022-11-10T01:30:22.547Z,23.25
2022-11-10T01:33:09.606Z,27.00
2022-11-10T01:35:56.532Z,22.50
2022-11-10T01:38:44.664Z,19.50
2022-11-10T01:41:31.034Z,21.00
2022-11-10T01:44:18.493Z,24.75
2022-11-10T01:47:06.305Z,23.00
2022-11-10T01:49:52.617Z,26.00
2022-11-10T01:52:38.956Z,26.00
2022-11-10T01:55:26.437Z,25.50
2022-11-10T01:58:14.754Z,28.00
2022-11-10T02:01:01.265Z,27.00
2022-11-10T02:03:50.703Z,27.00
2022-11-10T02:06:42.619Z,32.75
2022-11-10T02:09:29.484Z,29.00
2022-11-10T02:12:16.376Z,31.00
2022-11-10T02:15:03.078Z,31.50
2022-11-10T02:17:50.273Z,28.25
2022-11-10T02:20:38.288Z,34.00
2022-11-10T02:23:46.071Z,36.75
2022-11-10T02:26:33.058Z,36.25
2022-11-10T02:29:19.970Z,29.00
2022-11-10T02:32:06.214Z,41.00
2022-11-10T02:34:52.801Z,42.25
2022-11-10T02:37:39.193Z,38.67
2022-11-10T02:40:27.674Z,40.75
2022-11-10T02:43:15.647Z,41.25
2022-11-10T02:46:02.287Z,41.75
2022-11-10T02:48:48.728Z,41.00
2022-11-10T02:51:35.741Z,34.75
2022-11-10T02:54:22.215Z,36.00
2022-11-10T02:57:10.306Z,39.75
2022-11-10T02:59:57.007Z,40.25
2022-11-10T03:02:44.798Z,41.75
2022-11-10T03:05:31.855Z,36.00
2022-11-10T03:08:18.303Z,38.00
2022-11-10T03:11:04.746Z,36.25
2022-11-10T03:14:01.652Z,38.00
2022-11-10T03:16:49.034Z,36.75
2022-11-10T03:19:35.375Z,33.25
2022-11-10T03:22:21.665Z,33.75
2022-11-10T03:25:08.729Z,32.00
2022-11-10T03:27:55.292Z,33.25
2022-11-10T03:30:43.137Z,34.25
2022-11-10T03:33:29.868Z,31.75
2022-11-10T03:36:16.705Z,36.50
2022-11-10T03:39:03.656Z,31.25
2022-11-10T03:41:49.922Z,29.75
2022-11-10T03:44:36.302Z,35.50
2022-11-10T03:47:24.917Z,35.50
2022-11-10T03:50:11.613Z,33.75
2022-11-10T03:52:57.841Z,30.25
2022-11-10T03:55:44.166Z,37.00
2022-11-10T03:58:31.009Z,31.25
2022-11-10T04:01:17.433Z,26.25
2022-11-10T04:04:25.990Z,38.50
2022-11-10T04:07:30.621Z,31.25
2022-11-10T04:10:17.570Z,37.00
2022-11-10T04:13:21.761Z,32.50
2022-11-10T04:16:08.980Z,33.00
2022-11-10T04:18:55.340Z,31.50
2022-11-10T04:21:43.649Z,30.00
2022-11-10T04:24:30.204Z,35.75
2022-11-10T04:27:17.142Z,36.50
2022-11-10T04:30:03.763Z,29.50
2022-11-10T04:32:50.721Z,29.25
2022-11-10T04:35:37.368Z,30.50
2022-11-10T04:38:25.105Z,34.25
2022-11-10T04:41:11.632Z,28.75
2022-11-10T04:43:58.322Z,32.50
2022-11-10T04:46:45.583Z,26.25
2022-11-10T04:49:31.916Z,31.25
2022-11-10T04:52:18.326Z,34.00
2022-11-10T04:55:06.683Z,30.50
2022-11-10T04:57:53.330Z,28.00
2022-11-10T05:00:39.927Z,34.50
2022-11-10T05:03:27.163Z,28.50
2022-11-10T05:06:13.904Z,31.00
2022-11-10T05:09:00.255Z,38.00
2022-11-10T05:11:48.053Z,38.75
2022-11-10T05:14:34.699Z,33.50
2022-11-10T05:17:20.953Z,28.00
2022-11-10T05:20:08.072Z,33.75
2022-11-10T05:23:12.166Z,29.75
2022-11-10T05:25:58.518Z,26.25
2022-11-10T05:28:46.990Z,26.25
2022-11-10T05:31:33.831Z,29.75
2022-11-10T05:34:20.133Z,24.50
2022-11-10T05:37:06.383Z,30.25
2022-11-10T05:39:52.756Z,32.00
2022-11-10T05:42:44.033Z,37.00
2022-11-10T05:45:31.643Z,32.50
2022-11-10T05:48:18.233Z,31.75
2022-11-10T05:51:04.769Z,24.75
2022-11-10T05:53:51.553Z,30.25
2022-11-10T05:56:37.979Z,26.25
2022-11-10T05:59:24.346Z,23.25
2022-11-10T06:02:11.947Z,26.25
2022-11-10T06:04:58.472Z,15.75
2022-11-10T06:07:44.969Z,24.25
2022-11-10T06:10:31.750Z,21.50
2022-11-10T06:13:18.289Z,25.75
2022-11-10T06:16:04.732Z,25.00
2022-11-10T06:18:52.478Z,22.00
2022-11-10T06:21:38.769Z,17.75
2022-11-10T06:24:25.465Z,26.50
2022-11-10T06:27:11.696Z,22.00
2022-11-10T06:29:58.112Z,23.25
2022-11-10T06:32:45.079Z,21.25
2022-11-10T06:35:33.452Z,23.50
2022-11-10T06:38:19.769Z,19.50
2022-11-10T06:41:06.376Z,22.00
2022-11-10T06:43:53.197Z,25.00
2022-11-10T06:46:42.333Z,20.50
2022-11-10T06:49:28.856Z,14.75
2022-11-10T06:52:16.605Z,18.75
2022-11-10T06:55:02.888Z,23.00
2022-11-10T06:57:49.777Z,27.00
2022-11-10T07:00:36.178Z,21.50
2022-11-10T07:03:22.717Z,25.00
2022-11-10T07:06:09.774Z,23.00
2022-11-10T07:08:57.929Z,22.75
2022-11-10T07:11:44.720Z,20.25
2022-11-10T07:14:31.432Z,18.75
2022-11-10T07:17:17.903Z,23.25
2022-11-10T07:20:04.846Z,23.25
2022-11-10T07:22:51.140Z,18.00
2022-11-10T07:25:39.354Z,28.25
2022-11-10T07:28:28.420Z,25.75
2022-11-10T07:31:15.373Z,21.00
2022-11-10T07:34:01.698Z,29.50
2022-11-10T07:36:48.093Z,22.00
2022-11-10T07:39:34.541Z,24.75
2022-11-10T07:42:22.704Z,25.75
2022-11-10T07:45:10.391Z,22.25
2022-11-10T07:47:59.805Z,21.00
2022-11-10T07:50:46.250Z,22.00
2022-11-10T07:53:33.283Z,18.50
2022-11-10T07:56:19.566Z,26.00
2022-11-10T07:59:07.256Z,29.25
2022-11-10T08:01:54.041Z,28.50
2022-11-10T08:04:41.009Z,26.25
2022-11-10T08:07:27.616Z,26.00
2022-11-10T08:10:14.356Z,26.50
2022-11-10T08:13:01.794Z,29.00
2022-11-10T08:15:50.334Z,26.75
2022-11-10T08:18:36.896Z,26.50
2022-11-10T08:21:23.288Z,26.75
2022-11-10T08:24:09.915Z,27.00
2022-11-10T08:26:57.376Z,24.00
2022-11-10T08:29:44.053Z,24.25
2022-11-10T08:32:33.069Z,24.50
2022-11-10T08:35:19.346Z,26.25
2022-11-10T08:38:10.004Z,31.25
2022-11-10T08:40:57.546Z,27.00
2022-11-10T08:43:44.550Z,29.00
2022-11-10T08:46:31.044Z,32.50
2022-11-10T08:49:19.213Z,22.00
2022-11-10T08:52:05.893Z,26.50
2022-11-10T08:54:52.284Z,23.75
2022-11-10T08:57:38.708Z,26.25
2022-11-10T09:00:25.666Z,34.50
2022-11-10T09:03:13.789Z,26.50
2022-11-10T09:06:02.013Z,27.75
2022-11-10T09:08:48.668Z,23.50
2022-11-10T09:11:35.563Z,33.00
2022-11-10T09:14:22.752Z,27.75
2022-11-10T09:17:09.292Z,27.00
2022-11-10T09:19:55.942Z,26.25
2022-11-10T09:22:44.071Z,26.00
2022-11-10T09:25:30.308Z,29.75
2022-11-10T09:28:18.024Z,27.25
2022-11-10T09:31:04.787Z,25.50
2022-11-10T09:33:51.970Z,29.25
2022-11-10T09:36:40.419Z,23.50
2022-11-10T09:39:28.641Z,24.00
2022-11-10T09:42:26.378Z,26.50
2022-11-10T09:45:19.380Z,31.75
2022-11-10T09:48:08.463Z,31.50
2022-11-10T09:50:56.039Z,27.50
2022-11-10T09:53:44.386Z,30.50
2022-11-10T09:56:34.277Z,34.50
2022-11-10T09:59:24.828Z,33.00
2022-11-10T10:02:21.108Z,26.25
2022-11-10T10:05:27.943Z,32.50
2022-11-10T10:08:20.979Z,28.00
2022-11-10T10:11:14.462Z,33.25
2022-11-10T10:14:16.306Z,30.25
2022-11-10T10:17:07.501Z,33.25
2022-11-10T10:19:57.976Z,33.25
2022-11-10T10:23:00.277Z,24.75
2022-11-10T10:25:47.246Z,34.00
2022-11-10T10:28:38.124Z,29.75
2022-11-10T10:31:26.169Z,33.25
2022-11-10T10:34:18.684Z,26.50
2022-11-10T10:37:05.053Z,30.00
2022-11-10T10:39:52.324Z,35.50
2022-11-10T10:42:40.037Z,26.00
2022-11-10T10:45:27.223Z,25.00
2022-11-10T10:48:27.042Z,29.50
2022-11-10T10:51:28.376Z,26.25
2022-11-10T10:54:25.171Z,31.25
2022-11-10T10:57:21.679Z,29.75
2022-11-10T11:00:13.839Z,34.25
2022-11-10T11:03:04.976Z,27.25
2022-11-10T11:06:01.052Z,37.00
2022-11-10T11:09:02.117Z,36.50
2022-11-10T11:12:00.377Z,30.00
2022-11-10T11:14:47.203Z,30.25
2022-11-10T11:17:34.554Z,32.75
2022-11-10T11:20:21.389Z,34.50
2022-11-10T11:23:11.885Z,31.75
2022-11-10T11:26:03.598Z,33.75
2022-11-10T11:28:57.227Z,38.25
2022-11-10T11:31:49.139Z,39.00
2022-11-10T11:34:38.766Z,33.75
2022-11-10T11:37:29.937Z,39.25
2022-11-10T11:40:23.412Z,37.00
2022-11-10T11:43:16.933Z,37.25
2022-11-10T11:46:07.920Z,39.25
2022-11-10T11:49:00.519Z,37.00
2022-11-10T11:51:52.711Z,38.75
2022-11-10T11:54:48.803Z,36.25
2022-11-10T11:57:41.756Z,38.50
2022-11-10T12:00:32.051Z,36.75
2022-11-10T12:03:26.869Z,38.25
2022-11-10T12:06:19.492Z,36.00
2022-11-10T12:09:10.717Z,36.00
2022-11-10T12:12:03.940Z,40.00
2022-11-10T12:14:55.086Z,37.25
2022-11-10T12:17:47.499Z,38.25
2022-11-10T12:20:43.750Z,36.75
2022-11-10T12:23:35.822Z,38.50
2022-11-10T12:26:30.295Z,38.75
2022-11-10T12:29:21.880Z,43.50
2022-11-10T12:32:11.483Z,45.75
2022-11-10T12:35:02.521Z,45.00
2022-11-10T12:37:54.230Z,46.00
2022-11-10T12:40:42.851Z,42.25
2022-11-10T12:43:35.012Z,45.00
2022-11-10T12:46:21.500Z,43.25
2022-11-10T12:49:15.189Z,41.50
2022-11-10T12:52:07.878Z,47.75
2022-11-10T12:54:54.734Z,43.00
2022-11-10T12:57:43.614Z,42.50
2022-11-10T13:00:32.657Z,42.25
2022-11-10T13:03:26.739Z,39.25
2022-11-10T13:06:26.128Z,11.25
2022-11-10T13:09:24.374Z,40.25
2022-11-10T13:12:18.232Z,37.25
2022-11-10T13:15:24.944Z,30.50
2022-11-10T13:18:12.073Z,34.75
2022-11-10T13:20:59.582Z,30.75
2022-11-10T13:24:04.273Z,26.50
2022-11-10T13:26:55.372Z,38.00
2022-11-10T13:29:58.057Z,32.50
2022-11-10T13:32:44.557Z,35.50
2022-11-10T13:35:52.412Z,32.75
2022-11-10T13:38:43.056Z,32.00
2022-11-10T13:41:31.839Z,38.25
2022-11-10T13:44:26.876Z,43.75
2022-11-10T13:47:36.328Z,33.50
2022-11-10T13:50:28.280Z,38.50
2022-11-10T13:53:19.363Z,41.00
2022-11-10T13:56:22.482Z,28.25
2022-11-10T13:59:17.831Z,34.00
2022-11-10T14:02:25.902Z,30.25
2022-11-10T14:05:38.590Z,31.75
2022-11-10T14:08:26.405Z,32.50
2022-11-10T14:11:19.630Z,36.00
2022-11-10T14:14:13.128Z,40.25
2022-11-10T14:17:00.183Z,39.25
2022-11-10T14:19:47.133Z,28.33
2022-11-10T14:22:37.325Z,31.75
2022-11-10T14:25:26.824Z,38.50
2022-11-10T14:28:29.283Z,38.75
2022-11-10T14:31:20.426Z,39.25
2022-11-10T14:34:07.019Z,35.25
2022-11-10T14:36:55.012Z,34.75
2022-11-10T14:39:43.303Z,37.50
2022-11-10T14:42:31.885Z,30.50
2022-11-10T14:45:20.283Z,27.75
2022-11-10T14:48:16.470Z,34.75
2022-11-10T14:51:04.329Z,40.00
2022-11-10T14:53:52.136Z,26.75
2022-11-10T14:56:42.624Z,35.50
2022-11-10T14:59:29.631Z,28.50
2022-11-10T15:02:17.116Z,37.50
2022-11-10T15:05:04.365Z,41.50
2022-11-10T15:07:53.079Z,41.25
2022-11-10T15:10:47.442Z,35.75
2022-11-10T15:13:37.514Z,36.25
2022-11-10T15:16:28.437Z,27.75
2022-11-10T15:19:22.050Z,34.75
2022-11-10T15:22:14.473Z,31.75
2022-11-10T15:25:02.028Z,33.50
2022-11-10T15:27:56.803Z,37.75
2022-11-10T15:30:51.457Z,37.75
2022-11-10T15:33:39.308Z,34.75
2022-11-10T15:36:32.485Z,40.50
2022-11-10T15:39:20.413Z,42.25
2022-11-10T15:42:13.957Z,38.75
2022-11-10T15:45:00.439Z,37.25
2022-11-10T15:47:48.440Z,40.25
2022-11-10T15:50:35.278Z,33.00
2022-11-10T15:53:25.015Z,39.00
2022-11-10T15:56:14.503Z,39.00
2022-11-10T15:59:02.778Z,43.00
2022-11-10T16:01:49.840Z,42.00
2022-11-10T16:04:38.103Z,41.25
2022-11-10T16:07:24.873Z,33.75
2022-11-10T16:10:12.149Z,41.25
2022-11-10T16:12:58.719Z,40.50
2022-11-10T16:15:46.547Z,40.75
2022-11-10T16:18:33.266Z,31.25
2022-11-10T16:21:22.461Z,26.75
2022-11-10T16:24:09.753Z,38.50
2022-11-10T16:26:56.630Z,34.25
2022-11-10T16:29:43.871Z,40.50
2022-11-10T16:32:30.596Z,25.75
2022-11-10T16:35:17.265Z,29.25
2022-11-10T16:38:10.696Z,32.00
2022-11-10T16:40:58.804Z,40.25
2022-11-10T16:43:45.782Z,40.50
2022-11-10T16:46:32.364Z,42.00
2022-11-10T16:49:23.088Z,41.25
2022-11-10T16:52:13.455Z,42.00
2022-11-10T16:55:01.225Z,38.75
2022-11-10T16:57:48.697Z,40.75
2022-11-10T17:00:35.773Z,40.25
2022-11-10T17:03:26.528Z,35.50
2022-11-10T17:06:14.603Z,36.75
2022-11-10T17:09:03.717Z,42.00
2022-11-10T17:11:51.861Z,35.50
2022-11-10T17:14:39.088Z,35.25
2022-11-10T17:17:25.963Z,37.50
2022-11-10T17:20:18.964Z,30.50
2022-11-10T17:23:05.947Z,37.50
2022-11-10T17:25:54.235Z,34.00
2022-11-10T17:28:42.263Z,39.25
2022-11-10T17:31:28.726Z,41.50
2022-11-10T17:34:15.487Z,32.75
2022-11-10T17:37:02.484Z,40.00
2022-11-10T17:39:49.280Z,42.00
2022-11-10T17:42:35.992Z,35.50
2022-11-10T17:45:25.078Z,34.50
2022-11-10T17:48:12.638Z,37.50
2022-11-10T17:50:59.161Z,33.75
2022-11-10T17:53:45.878Z,32.75
2022-11-10T17:56:32.798Z,38.00
2022-11-10T17:59:19.805Z,40.75
2022-11-10T18:02:10.488Z,37.00
2022-11-10T18:04:57.547Z,34.25
2022-11-10T18:07:44.578Z,41.50
2022-11-10T18:10:31.538Z,32.50
2022-11-10T18:13:18.746Z,33.00
2022-11-10T18:16:06.068Z,38.50
2022-11-10T18:18:53.923Z,32.75
2022-11-10T18:21:40.625Z,40.50
2022-11-10T18:24:27.398Z,32.75
2022-11-10T18:27:14.205Z,37.50
2022-11-10T18:30:02.368Z,41.75
2022-11-10T18:32:49.387Z,37.25
2022-11-10T18:35:39.173Z,40.00
2022-11-10T18:38:25.802Z,37.25
2022-11-10T18:41:26.561Z,40.50
2022-11-10T18:44:13.826Z,37.50
2022-11-10T18:47:00.708Z,28.25
2022-11-10T18:49:47.339Z,34.25
2022-11-10T18:52:35.823Z,34.50
2022-11-10T18:55:22.835Z,38.50
2022-11-10T18:58:09.320Z,34.00
2022-11-10T19:01:02.943Z,38.25
2022-11-10T19:03:50.370Z,36.75
2022-11-10T19:06:37.752Z,39.00
2022-11-10T19:09:26.385Z,37.50
2022-11-10T19:12:13.186Z,38.75
2022-11-10T19:15:00.126Z,35.25
2022-11-10T19:17:47.244Z,26.25
2022-11-10T19:20:36.201Z,33.50
2022-11-10T19:23:23.518Z,28.50
2022-11-10T19:26:17.873Z,36.00
2022-11-10T19:29:07.869Z,35.25
2022-11-10T19:31:55.003Z,36.33
2022-11-10T19:34:41.720Z,40.75
2022-11-10T19:37:32.163Z,38.25
2022-11-10T19:40:21.215Z,37.50
2022-11-10T19:43:09.647Z,39.00
2022-11-10T19:45:56.337Z,34.25
2022-11-10T19:48:43.574Z,40.25
2022-11-10T19:51:30.706Z,38.00
2022-11-10T19:54:17.394Z,31.50
2022-11-10T19:57:04.110Z,35.50
2022-11-10T19:59:52.405Z,40.75
2022-11-10T20:02:44.244Z,39.75
2022-11-10T20:05:32.389Z,34.00
2022-11-10T20:08:19.065Z,38.25
2022-11-10T20:11:07.152Z,36.75
2022-11-10T20:13:55.311Z,37.00
2022-11-10T20:16:43.562Z,30.75
2022-11-10T20:19:30.379Z,39.25
2022-11-10T20:22:17.329Z,36.25
2022-11-10T20:25:04.575Z,35.25
2022-11-10T20:27:51.341Z,35.00
2022-11-10T20:30:38.797Z,32.75
2022-11-10T20:33:26.707Z,41.75
2022-11-10T20:36:20.124Z,35.00
2022-11-10T20:39:07.376Z,37.25
2022-11-10T20:41:54.501Z,35.25
2022-11-10T20:44:41.139Z,38.50
2022-11-10T20:47:29.533Z,36.00
2022-11-10T20:50:23.074Z,40.75
2022-11-10T20:53:11.091Z,42.50
2022-11-10T20:55:59.667Z,41.25
2022-11-10T20:58:46.495Z,45.25
2022-11-10T21:01:33.778Z,41.00
2022-11-10T21:04:21.033Z,40.25
2022-11-10T21:07:09.389Z,39.00
2022-11-10T21:09:56.052Z,42.50
2022-11-10T21:12:52.193Z,44.00
2022-11-10T21:15:40.474Z,34.50
2022-11-10T21:18:27.705Z,29.00
2022-11-10T21:21:20.351Z,36.25
2022-11-10T21:24:09.481Z,26.50
2022-11-10T21:26:56.648Z,32.50
2022-11-10T21:29:43.669Z,37.50
2022-11-10T21:32:30.769Z,44.00
2022-11-10T21:35:18.237Z,41.50
2022-11-10T21:38:05.186Z,39.75
2022-11-10T21:40:53.119Z,42.25
2022-11-10T21:43:40.006Z,36.25
2022-11-10T21:46:26.458Z,38.50
2022-11-10T21:49:12.953Z,31.25
2022-11-10T21:51:59.869Z,37.00
2022-11-10T21:54:46.507Z,39.50
2022-11-10T21:57:34.278Z,34.25
2022-11-10T22:00:21.195Z,20.75
2022-11-10T22:03:07.843Z,41.25
2022-11-10T22:05:54.095Z,30.75
2022-11-10T22:08:41.474Z,41.50
2022-11-10T22:11:45.760Z,34.50
2022-11-10T22:14:51.332Z,40.75
2022-11-10T22:17:55.313Z,35.25
2022-11-10T22:20:41.717Z,42.00
2022-11-10T22:23:45.638Z,37.00
2022-11-10T22:26:32.497Z,42.50
2022-11-10T22:29:19.344Z,39.25
2022-11-10T22:32:07.226Z,39.25
2022-11-10T22:34:53.883Z,39.00
2022-11-10T22:37:40.738Z,37.75
2022-11-10T22:40:44.555Z,39.00
2022-11-10T22:43:48.540Z,33.50
2022-11-10T22:46:35.987Z,23.75
2022-11-10T22:49:25.065Z,39.00
2022-11-10T22:52:11.528Z,27.25
2022-11-10T22:54:58.517Z,34.75
2022-11-10T22:57:45.069Z,31.50
2022-11-10T23:00:31.735Z,35.25
2022-11-10T23:03:18.029Z,34.00
2022-11-10T23:06:06.029Z,36.25
2022-11-10T23:08:52.850Z,37.50
2022-11-10T23:11:39.454Z,40.50
2022-11-10T23:14:25.633Z,42.50
2022-11-10T23:17:11.800Z,40.75
2022-11-10T23:19:58.258Z,42.25
2022-11-10T23:22:46.406Z,37.00
2022-11-10T23:25:32.687Z,33.75
2022-11-10T23:28:19.204Z,29.25
2022-11-10T23:31:06.640Z,35.25
2022-11-10T23:33:54.573Z,38.25
2022-11-10T23:36:42.031Z,37.25
2022-11-10T23:39:30.487Z,37.25
2022-11-10T23:42:17.100Z,45.00
2022-11-10T23:45:03.880Z,49.20
2022-11-10T23:47:50.300Z,48.00
2022-11-10T23:50:36.424Z,45.75
2022-11-10T23:53:23.217Z,37.25
2022-11-10T23:56:12.516Z,34.50
2022-11-10T23:58:59.159Z,35.25
